createdAt,value
2019-04-30T00:02:15.887Z,52.75
2019-04-30T00:04:49.309Z,50.10
2019-04-30T00:07:21.248Z,50.70
2019-04-30T00:09:53.930Z,51.30
2019-04-30T00:12:22.163Z,48.08
2019-04-30T00:14:54.926Z,50.70
2019-04-30T00:17:28.186Z,49.87
2019-04-30T00:19:59.894Z,56.05
2019-04-30T00:22:34.199Z,57.00
2019-04-30T00:25:02.937Z,54.25
2019-04-30T00:27:31.679Z,53.85
2019-04-30T00:30:04.849Z,52.15
2019-04-30T00:32:39.300Z,53.30
2019-04-30T00:35:07.159Z,51.70
2019-04-30T00:37:35.528Z,53.10
2019-04-30T00:40:05.988Z,55.98
2019-04-30T00:42:35.778Z,54.58
2019-04-30T00:45:12.130Z,54.42
2019-04-30T00:47:44.510Z,54.90
2019-04-30T00:50:15.001Z,51.68
2019-04-30T00:52:45.759Z,53.68
2019-04-30T00:55:15.017Z,51.80
2019-04-30T00:57:47.596Z,53.58
2019-04-30T01:00:19.735Z,53.05
2019-04-30T01:02:53.122Z,48.45
2019-04-30T01:05:25.480Z,53.92
2019-04-30T01:07:55.070Z,51.48
2019-04-30T01:10:27.178Z,53.78
2019-04-30T01:13:01.843Z,50.95
2019-04-30T01:15:26.558Z,53.08
2019-04-30T01:17:55.513Z,46.92
2019-04-30T01:20:31.104Z,47.83
2019-04-30T01:22:55.021Z,43.40
2019-04-30T01:25:28.753Z,52.95
2019-04-30T01:27:58.557Z,51.08
2019-04-30T01:30:28.480Z,52.65
2019-04-30T01:32:58.818Z,55.63
2019-04-30T01:35:31.290Z,51.95
2019-04-30T01:37:59.619Z,49.33
2019-04-30T01:40:29.143Z,48.92
2019-04-30T01:42:59.409Z,53.02
2019-04-30T01:45:31.626Z,49.77
2019-04-30T01:48:08.466Z,52.27
2019-04-30T01:50:29.584Z,56.30
2019-04-30T01:52:59.127Z,53.15
2019-04-30T01:55:45.407Z,54.53
2019-04-30T01:58:21.052Z,54.25
2019-04-30T02:00:53.105Z,53.90
2019-04-30T02:03:21.852Z,51.83
2019-04-30T02:05:50.777Z,48.92
2019-04-30T02:08:19.773Z,48.55
2019-04-30T02:10:51.360Z,54.77
2019-04-30T02:13:19.980Z,53.33
2019-04-30T02:15:51.557Z,54.33
2019-04-30T02:18:20.460Z,55.80
2019-04-30T02:20:50.646Z,54.35
2019-04-30T02:23:19.769Z,51.55
2019-04-30T02:25:48.966Z,55.03
2019-04-30T02:28:19.535Z,54.33
2019-04-30T02:30:50.560Z,53.42
2019-04-30T02:33:19.942Z,54.93
2019-04-30T02:36:03.831Z,52.83
2019-04-30T02:38:34.360Z,51.42
2019-04-30T02:41:04.244Z,48.55
2019-04-30T02:43:33.357Z,51.88
2019-04-30T02:46:02.538Z,55.65
2019-04-30T02:48:33.162Z,59.13
2019-04-30T02:51:03.762Z,59.63
2019-04-30T02:54:29.480Z,56.58
2019-04-30T02:57:11.786Z,55.23
2019-04-30T03:00:00.001Z,54.00
2019-04-30T03:02:33.075Z,57.60
2019-04-30T03:05:01.842Z,57.23
2019-04-30T03:07:32.608Z,56.40
2019-04-30T03:10:01.588Z,57.03
2019-04-30T03:12:33.617Z,56.98
2019-04-30T03:15:03.296Z,57.70
2019-04-30T03:17:47.346Z,59.18
2019-04-30T03:20:46.690Z,59.55
2019-04-30T03:23:15.632Z,56.90
2019-04-30T03:25:50.083Z,56.92
2019-04-30T03:28:20.144Z,55.98
2019-04-30T03:30:51.887Z,58.05
2019-04-30T03:33:22.904Z,56.50
2019-04-30T03:35:54.826Z,57.67
2019-04-30T03:38:25.356Z,56.95
2019-04-30T03:40:56.032Z,54.60
2019-04-30T03:43:24.637Z,54.58
2019-04-30T03:45:53.584Z,53.90
2019-04-30T03:48:22.136Z,51.15
2019-04-30T03:50:56.566Z,53.08
2019-04-30T03:53:21.374Z,53.85
2019-04-30T03:55:51.371Z,53.92
2019-04-30T03:58:21.462Z,55.43
2019-04-30T04:01:10.151Z,55.78
2019-04-30T04:04:00.370Z,54.10
2019-04-30T04:06:34.942Z,55.08
2019-04-30T04:09:22.027Z,53.15
2019-04-30T04:11:51.803Z,56.28
2019-04-30T04:14:25.927Z,57.78
2019-04-30T04:16:59.967Z,53.87
2019-04-30T04:19:29.212Z,53.75
2019-04-30T04:22:00.151Z,56.95
2019-04-30T04:24:30.393Z,56.23
2019-04-30T04:27:02.227Z,53.48
2019-04-30T04:29:32.397Z,51.23
2019-04-30T04:32:03.959Z,51.23
2019-04-30T04:34:32.881Z,51.88
2019-04-30T04:37:02.864Z,51.45
2019-04-30T04:39:33.705Z,49.55
2019-04-30T04:42:02.321Z,49.73
2019-04-30T04:44:31.337Z,49.75
2019-04-30T04:47:00.315Z,49.10
2019-04-30T04:49:31.729Z,48.83
2019-04-30T04:52:00.683Z,47.17
2019-04-30T04:54:30.126Z,47.67
2019-04-30T04:57:13.974Z,49.10
2019-04-30T04:59:34.732Z,46.68
2019-04-30T05:02:25.521Z,47.85
2019-04-30T05:04:56.893Z,46.42
2019-04-30T05:07:25.949Z,48.92
2019-04-30T05:09:54.672Z,47.80
2019-04-30T05:12:23.278Z,49.10
2019-04-30T05:14:53.533Z,49.73
2019-04-30T05:17:22.128Z,49.88
2019-04-30T05:19:51.392Z,50.30
2019-04-30T05:22:21.650Z,48.55
2019-04-30T05:24:50.221Z,48.55
2019-04-30T05:27:19.796Z,48.65
2019-04-30T05:29:49.875Z,47.93
2019-04-30T05:32:19.746Z,46.75
2019-04-30T05:34:49.681Z,49.98
2019-04-30T05:37:18.792Z,49.00
2019-04-30T05:39:48.919Z,47.45
2019-04-30T05:42:19.833Z,49.45
2019-04-30T05:44:50.785Z,48.58
2019-04-30T05:47:19.754Z,50.03
2019-04-30T05:49:50.647Z,50.10
2019-04-30T05:52:21.164Z,50.35
2019-04-30T05:54:50.070Z,49.70
2019-04-30T05:57:19.720Z,49.93
2019-04-30T05:59:48.888Z,47.73
2019-04-30T06:02:21.052Z,48.17
2019-04-30T06:04:51.012Z,48.60
2019-04-30T06:07:21.986Z,46.35
2019-04-30T06:09:59.763Z,48.92
2019-04-30T06:12:46.257Z,46.40
2019-04-30T06:15:22.140Z,45.65
2019-04-30T06:18:00.726Z,46.40
2019-04-30T06:20:22.692Z,44.58
2019-04-30T06:22:52.174Z,45.28
2019-04-30T06:25:31.859Z,43.13
2019-04-30T06:27:51.813Z,42.60
2019-04-30T06:30:23.858Z,43.40
2019-04-30T06:32:52.906Z,39.98
2019-04-30T06:35:21.745Z,42.08
2019-04-30T06:37:52.535Z,41.88
2019-04-30T06:40:21.268Z,41.02
2019-04-30T06:42:50.180Z,40.05
2019-04-30T06:45:21.316Z,39.45
2019-04-30T06:47:50.505Z,39.25
2019-04-30T06:50:19.498Z,40.48
2019-04-30T06:52:56.374Z,39.83
2019-04-30T06:55:19.401Z,41.18
2019-04-30T06:57:50.375Z,37.48
2019-04-30T07:00:20.838Z,40.20
2019-04-30T07:02:49.771Z,38.95
2019-04-30T07:05:18.685Z,39.63
2019-04-30T07:08:09.299Z,37.33
2019-04-30T07:10:36.666Z,37.93
2019-04-30T07:13:29.675Z,38.48
2019-04-30T07:15:58.710Z,37.63
2019-04-30T07:18:29.635Z,39.78
2019-04-30T07:21:00.273Z,40.58
2019-04-30T07:23:29.210Z,42.62
2019-04-30T07:25:59.610Z,39.67
2019-04-30T07:28:46.547Z,40.03
2019-04-30T07:31:13.868Z,38.90
2019-04-30T07:33:40.890Z,38.48
2019-04-30T07:36:10.008Z,35.10
2019-04-30T07:38:45.546Z,36.20
2019-04-30T07:41:12.164Z,37.08
2019-04-30T07:43:40.747Z,37.23
2019-04-30T07:46:11.502Z,37.53
2019-04-30T07:48:42.096Z,36.95
2019-04-30T07:51:12.886Z,35.38
2019-04-30T07:53:43.632Z,36.93
2019-04-30T07:56:25.721Z,36.98
2019-04-30T07:58:44.399Z,39.40
2019-04-30T08:01:16.043Z,38.08
2019-04-30T08:04:08.881Z,37.25
2019-04-30T08:06:40.003Z,38.05
2019-04-30T08:09:11.280Z,36.65
2019-04-30T08:11:43.907Z,35.98
2019-04-30T08:14:12.562Z,38.33
2019-04-30T08:16:44.717Z,37.60
2019-04-30T08:19:13.472Z,37.73
2019-04-30T08:21:45.964Z,38.38
2019-04-30T08:24:14.524Z,37.60
2019-04-30T08:26:43.670Z,37.63
2019-04-30T08:29:12.580Z,34.48
2019-04-30T08:31:42.774Z,38.30
2019-04-30T08:34:11.380Z,38.90
2019-04-30T08:36:40.801Z,37.15
2019-04-30T08:39:10.699Z,38.23
2019-04-30T08:41:40.816Z,37.75
2019-04-30T08:44:12.778Z,37.10
2019-04-30T08:46:44.839Z,36.10
2019-04-30T08:49:14.040Z,38.40
2019-04-30T08:51:42.970Z,36.42
2019-04-30T08:54:11.534Z,34.55
2019-04-30T08:56:40.258Z,31.62
2019-04-30T08:59:11.408Z,35.73
2019-04-30T09:01:41.841Z,37.10
2019-04-30T09:04:10.582Z,31.57
2019-04-30T09:06:39.729Z,34.00
2019-04-30T09:09:24.166Z,34.92
2019-04-30T09:11:56.036Z,33.73
2019-04-30T09:14:45.538Z,34.13
2019-04-30T09:17:14.449Z,34.75
2019-04-30T09:19:44.479Z,30.72
2019-04-30T09:22:15.235Z,31.57
2019-04-30T09:24:45.556Z,32.20
2019-04-30T09:27:15.562Z,29.75
2019-04-30T09:29:46.266Z,33.78
2019-04-30T09:32:19.109Z,32.45
2019-04-30T09:34:48.963Z,30.65
2019-04-30T09:37:18.763Z,33.73
2019-04-30T09:39:49.266Z,31.68
2019-04-30T09:42:19.663Z,33.10
2019-04-30T09:44:54.242Z,32.85
2019-04-30T09:47:22.204Z,32.73
2019-04-30T09:49:51.529Z,33.98
2019-04-30T09:52:21.870Z,33.45
2019-04-30T09:54:52.719Z,34.92
2019-04-30T09:57:21.500Z,34.10
2019-04-30T09:59:51.750Z,33.78
2019-04-30T10:02:21.909Z,35.33
2019-04-30T10:04:52.703Z,34.35
2019-04-30T10:07:21.776Z,34.53
2019-04-30T10:09:51.051Z,34.20
2019-04-30T10:12:19.738Z,35.10
2019-04-30T10:14:49.649Z,35.65
2019-04-30T10:17:39.058Z,35.28
2019-04-30T10:20:10.744Z,36.40
2019-04-30T10:22:40.840Z,35.68
2019-04-30T10:25:09.685Z,36.42
2019-04-30T10:27:39.628Z,35.73
2019-04-30T10:30:12.465Z,37.63
2019-04-30T10:32:41.034Z,37.30
2019-04-30T10:35:09.587Z,38.02
2019-04-30T10:37:38.891Z,36.58
2019-04-30T10:40:10.364Z,36.88
2019-04-30T10:42:40.596Z,37.13
2019-04-30T10:45:09.984Z,36.80
2019-04-30T10:47:39.803Z,37.38
2019-04-30T10:50:09.877Z,36.35
2019-04-30T10:52:39.310Z,38.42
2019-04-30T10:55:09.367Z,37.13
2019-04-30T10:57:39.616Z,34.73
2019-04-30T11:00:15.646Z,36.08
2019-04-30T11:02:44.227Z,33.58
2019-04-30T11:05:18.783Z,35.25
2019-04-30T11:07:49.728Z,35.55
2019-04-30T11:10:20.445Z,38.05
2019-04-30T11:12:49.025Z,35.90
2019-04-30T11:15:20.636Z,35.52
2019-04-30T11:17:49.614Z,35.88
2019-04-30T11:20:21.736Z,36.68
2019-04-30T11:22:49.468Z,36.65
2019-04-30T11:25:24.571Z,35.33
2019-04-30T11:27:54.278Z,36.65
2019-04-30T11:30:24.415Z,37.42
2019-04-30T11:32:57.400Z,36.38
2019-04-30T11:35:26.139Z,33.33
2019-04-30T11:37:55.088Z,34.78
2019-04-30T11:40:34.465Z,36.23
2019-04-30T11:43:03.607Z,33.58
2019-04-30T11:46:18.698Z,32.65
2019-04-30T11:48:48.988Z,34.75
2019-04-30T11:51:19.395Z,34.70
2019-04-30T11:53:49.063Z,32.28
2019-04-30T11:56:19.184Z,31.82
2019-04-30T11:58:51.908Z,29.48
2019-04-30T12:01:23.016Z,30.48
2019-04-30T12:03:53.160Z,32.65
2019-04-30T12:06:24.063Z,30.17
2019-04-30T12:09:09.147Z,28.67
2019-04-30T12:11:37.889Z,29.02
2019-04-30T12:14:07.926Z,30.17
2019-04-30T12:16:36.682Z,30.65
2019-04-30T12:19:05.349Z,32.30
2019-04-30T12:21:33.888Z,32.55
2019-04-30T12:24:05.928Z,31.02
2019-04-30T12:26:34.838Z,28.05
2019-04-30T12:29:03.803Z,27.75
2019-04-30T12:31:34.084Z,29.20
2019-04-30T12:34:02.662Z,29.40
2019-04-30T12:36:35.006Z,28.50
2019-04-30T12:39:06.315Z,29.32
2019-04-30T12:41:34.910Z,31.42
2019-04-30T12:44:08.118Z,30.17
2019-04-30T12:46:39.060Z,28.92
2019-04-30T12:49:11.460Z,30.37
2019-04-30T12:52:19.653Z,27.85
2019-04-30T12:55:22.495Z,30.32
2019-04-30T12:57:58.838Z,27.15
2019-04-30T13:00:24.607Z,26.57
2019-04-30T13:02:56.715Z,28.65
2019-04-30T13:05:29.634Z,27.02
2019-04-30T13:08:00.162Z,25.62
2019-04-30T13:10:29.246Z,24.10
2019-04-30T13:12:59.913Z,24.02
2019-04-30T13:15:31.087Z,23.47
2019-04-30T13:18:01.293Z,22.65
2019-04-30T13:20:29.854Z,23.02
2019-04-30T13:23:00.856Z,23.75
2019-04-30T13:25:36.819Z,23.18
2019-04-30T13:28:11.978Z,24.52
2019-04-30T13:30:41.356Z,24.75
2019-04-30T13:33:22.555Z,24.40
2019-04-30T13:35:52.985Z,22.05
2019-04-30T13:38:29.163Z,24.20
2019-04-30T13:41:08.878Z,23.57
2019-04-30T13:44:04.408Z,22.65
2019-04-30T13:46:34.393Z,22.95
2019-04-30T13:49:08.050Z,23.40
2019-04-30T13:54:04.654Z,22.73
2019-04-30T13:56:33.536Z,21.50
2019-04-30T13:59:02.454Z,22.22
2019-04-30T14:01:33.693Z,20.85
2019-04-30T14:04:24.520Z,21.73
2019-04-30T14:07:05.131Z,21.73
2019-04-30T14:09:35.726Z,22.02
2019-04-30T14:12:04.291Z,21.48
2019-04-30T14:14:33.232Z,21.15
2019-04-30T14:17:06.365Z,22.25
2019-04-30T14:19:38.492Z,22.20
2019-04-30T14:22:08.949Z,22.32
2019-04-30T14:24:40.909Z,21.52
2019-04-30T14:27:09.973Z,21.87
2019-04-30T14:29:39.573Z,21.73
2019-04-30T14:32:11.239Z,21.68
2019-04-30T14:34:42.878Z,22.87
2019-04-30T14:37:10.775Z,21.87
2019-04-30T14:39:40.391Z,22.17
2019-04-30T14:42:11.072Z,20.88
2019-04-30T14:44:40.643Z,23.32
2019-04-30T14:47:22.401Z,22.17
2019-04-30T14:50:12.467Z,20.35
2019-04-30T14:52:48.303Z,19.57
2019-04-30T14:55:39.656Z,21.12
2019-04-30T14:58:34.250Z,20.50
2019-04-30T15:01:27.131Z,20.75
2019-04-30T15:03:59.321Z,18.85
2019-04-30T15:06:30.627Z,19.90
2019-04-30T15:08:59.213Z,19.60
2019-04-30T15:11:30.170Z,19.67
2019-04-30T15:13:59.212Z,19.30
2019-04-30T15:16:29.165Z,19.90
2019-04-30T15:18:59.430Z,18.75
2019-04-30T15:21:29.671Z,18.80
2019-04-30T15:24:11.972Z,20.45
2019-04-30T15:26:41.827Z,18.70
2019-04-30T15:29:14.407Z,19.73
2019-04-30T15:31:42.633Z,20.45
2019-04-30T15:34:13.983Z,20.05
2019-04-30T15:36:42.719Z,20.52
2019-04-30T15:39:33.093Z,20.15
2019-04-30T15:42:03.997Z,22.30
2019-04-30T15:44:40.143Z,22.37
2019-04-30T15:47:05.249Z,21.50
2019-04-30T15:49:33.880Z,22.50
2019-04-30T15:52:11.067Z,22.58
2019-04-30T15:54:41.329Z,23.20
2019-04-30T15:57:10.254Z,23.35
2019-04-30T15:59:46.984Z,23.45
2019-04-30T16:02:53.209Z,22.17
2019-04-30T16:05:30.813Z,22.37
2019-04-30T16:08:19.048Z,22.98
2019-04-30T16:11:12.775Z,22.65
2019-04-30T16:14:23.726Z,22.98
2019-04-30T16:17:07.062Z,23.80
2019-04-30T16:19:35.637Z,23.30
2019-04-30T16:22:06.131Z,23.47
2019-04-30T16:24:35.126Z,21.85
2019-04-30T16:27:03.748Z,23.57
2019-04-30T16:29:34.631Z,24.47
2019-04-30T16:32:03.233Z,22.67
2019-04-30T16:34:33.354Z,22.60
2019-04-30T16:37:01.944Z,22.17
2019-04-30T16:39:32.874Z,22.73
2019-04-30T16:42:01.806Z,21.80
2019-04-30T16:44:32.593Z,21.95
2019-04-30T16:47:13.061Z,22.40
2019-04-30T16:49:38.697Z,23.52
2019-04-30T16:52:09.154Z,22.67
2019-04-30T16:54:39.568Z,23.02
2019-04-30T16:57:10.308Z,22.42
2019-04-30T16:59:41.909Z,21.55
2019-04-30T17:02:14.563Z,20.75
2019-04-30T17:04:58.074Z,21.75
2019-04-30T17:07:56.420Z,20.85
2019-04-30T17:10:32.131Z,19.95
2019-04-30T17:13:19.573Z,21.30
2019-04-30T17:15:49.344Z,21.37
2019-04-30T17:18:19.098Z,20.30
2019-04-30T17:20:49.095Z,20.62
2019-04-30T17:23:19.299Z,20.68
2019-04-30T17:25:48.114Z,22.07
2019-04-30T17:28:18.664Z,21.97
2019-04-30T17:30:49.016Z,22.45
2019-04-30T17:33:17.336Z,22.05
2019-04-30T17:35:49.856Z,22.60
2019-04-30T17:38:21.292Z,23.00
2019-04-30T17:40:49.986Z,22.93
2019-04-30T17:43:18.549Z,21.52
2019-04-30T17:45:49.195Z,22.40
2019-04-30T17:48:17.631Z,23.25
2019-04-30T17:50:46.763Z,22.65
2019-04-30T17:53:15.342Z,23.95
2019-04-30T17:55:43.944Z,22.77
2019-04-30T17:58:12.934Z,24.12
2019-04-30T18:00:45.592Z,24.12
2019-04-30T18:03:14.436Z,23.77
2019-04-30T18:05:42.992Z,23.35
2019-04-30T18:08:11.566Z,24.05
2019-04-30T18:10:40.891Z,23.65
2019-04-30T18:13:09.793Z,23.25
2019-04-30T18:15:38.364Z,23.45
2019-04-30T18:18:15.629Z,24.98
2019-04-30T18:20:51.541Z,25.05
2019-04-30T18:23:51.244Z,24.77
2019-04-30T18:26:19.809Z,25.08
2019-04-30T18:28:48.690Z,24.47
2019-04-30T18:31:20.688Z,24.55
2019-04-30T18:33:51.475Z,26.20
2019-04-30T18:36:19.591Z,24.57
2019-04-30T18:38:50.310Z,26.37
2019-04-30T18:41:19.412Z,24.55
2019-04-30T18:43:48.754Z,26.25
2019-04-30T18:46:19.149Z,25.75
2019-04-30T18:48:49.419Z,25.97
2019-04-30T18:51:35.878Z,27.42
2019-04-30T18:53:50.934Z,25.97
2019-04-30T18:56:21.840Z,27.50
2019-04-30T18:58:51.038Z,27.32
2019-04-30T19:01:19.941Z,28.35
2019-04-30T19:03:49.260Z,28.47
2019-04-30T19:06:25.903Z,27.58
2019-04-30T19:09:04.082Z,26.05
2019-04-30T19:11:39.497Z,27.00
2019-04-30T19:14:45.543Z,24.98
2019-04-30T19:17:30.874Z,26.33
2019-04-30T19:20:18.787Z,25.88
2019-04-30T19:22:47.838Z,24.72
2019-04-30T19:25:19.131Z,26.37
2019-04-30T19:27:48.283Z,26.48
2019-04-30T19:30:19.120Z,25.25
2019-04-30T19:32:49.162Z,25.60
2019-04-30T19:35:18.761Z,26.27
2019-04-30T19:37:48.700Z,25.35
2019-04-30T19:40:19.022Z,25.55
2019-04-30T19:42:50.777Z,25.95
2019-04-30T19:45:21.485Z,25.37
2019-04-30T19:47:50.068Z,26.73
2019-04-30T19:50:22.067Z,24.50
2019-04-30T19:52:52.675Z,24.92
2019-04-30T19:55:24.672Z,26.55
2019-04-30T19:57:53.266Z,25.55
2019-04-30T20:00:21.923Z,26.52
2019-04-30T20:02:50.664Z,27.70
2019-04-30T20:05:19.535Z,28.52
2019-04-30T20:07:49.341Z,25.68
2019-04-30T20:10:19.550Z,24.77
2019-04-30T20:12:49.920Z,26.30
2019-04-30T20:15:21.727Z,27.35
2019-04-30T20:17:49.905Z,26.97
2019-04-30T20:20:18.946Z,27.30
2019-04-30T20:22:47.626Z,27.85
2019-04-30T20:25:16.369Z,27.90
2019-04-30T20:27:45.473Z,27.67
2019-04-30T20:30:14.438Z,26.65
2019-04-30T20:32:43.051Z,28.02
2019-04-30T20:35:13.274Z,27.25
2019-04-30T20:38:04.154Z,26.45
2019-04-30T20:40:43.275Z,27.82
2019-04-30T20:43:08.455Z,27.20
2019-04-30T20:45:36.651Z,26.57
2019-04-30T20:48:05.241Z,28.20
2019-04-30T20:50:34.001Z,28.65
2019-04-30T20:53:02.583Z,27.15
2019-04-30T20:55:31.329Z,28.07
2019-04-30T20:57:59.915Z,26.12
2019-04-30T21:00:29.011Z,28.20
2019-04-30T21:02:59.739Z,28.17
2019-04-30T21:05:29.943Z,25.85
2019-04-30T21:08:00.074Z,27.70
2019-04-30T21:10:29.687Z,26.40
2019-04-30T21:12:58.401Z,27.48
2019-04-30T21:15:29.727Z,27.90
2019-04-30T21:17:58.774Z,28.38
2019-04-30T21:20:29.865Z,26.42
2019-04-30T21:23:00.011Z,27.50
2019-04-30T21:25:32.055Z,27.48
2019-04-30T21:28:03.177Z,27.80
2019-04-30T21:30:32.482Z,27.45
2019-04-30T21:33:22.378Z,26.68
2019-04-30T21:35:55.499Z,27.62
2019-04-30T21:38:24.134Z,28.17
2019-04-30T21:40:52.678Z,27.67
2019-04-30T21:43:23.479Z,26.37
2019-04-30T21:45:52.048Z,25.82
2019-04-30T21:48:20.620Z,25.90
2019-04-30T21:50:49.771Z,24.40
2019-04-30T21:53:19.591Z,24.77
2019-04-30T21:55:49.694Z,25.82
2019-04-30T21:58:20.459Z,25.25
2019-04-30T22:01:07.358Z,26.87
2019-04-30T22:03:36.095Z,26.80
2019-04-30T22:06:04.674Z,26.55
2019-04-30T22:08:33.439Z,26.35
2019-04-30T22:11:05.190Z,25.43
2019-04-30T22:13:33.753Z,26.97
2019-04-30T22:16:02.418Z,25.72
2019-04-30T22:18:34.249Z,24.72
2019-04-30T22:21:02.837Z,24.75
2019-04-30T22:23:31.585Z,24.75
2019-04-30T22:26:00.180Z,24.35
2019-04-30T22:28:29.030Z,25.32
2019-04-30T22:30:58.591Z,24.10
2019-04-30T22:33:29.205Z,23.35
2019-04-30T22:36:13.158Z,22.62
2019-04-30T22:41:29.821Z,21.15
2019-04-30T22:44:01.480Z,21.87
2019-04-30T22:46:30.133Z,21.85
2019-04-30T22:48:58.709Z,22.87
2019-04-30T22:51:29.292Z,21.90
2019-04-30T22:53:57.853Z,19.95
2019-04-30T22:56:26.615Z,20.25
2019-04-30T22:58:55.194Z,20.95
2019-04-30T23:01:45.083Z,18.85
2019-04-30T23:04:19.479Z,18.67
2019-04-30T23:06:48.453Z,18.45
2019-04-30T23:09:17.794Z,18.67
2019-04-30T23:11:46.808Z,18.75
2019-04-30T23:14:17.364Z,19.60
2019-04-30T23:16:46.306Z,19.98
2019-04-30T23:19:15.096Z,19.73
2019-04-30T23:21:43.837Z,19.25
2019-04-30T23:24:12.386Z,18.57
2019-04-30T23:26:40.948Z,17.20
2019-04-30T23:29:09.511Z,18.60
2019-04-30T23:31:38.081Z,19.05
2019-04-30T23:34:17.420Z,17.90
2019-04-30T23:36:37.396Z,18.35
2019-04-30T23:39:06.027Z,19.55
2019-04-30T23:41:34.605Z,18.70
2019-04-30T23:44:03.152Z,19.35
2019-04-30T23:46:31.739Z,19.48
2019-04-30T23:49:00.601Z,19.15
2019-04-30T23:51:29.202Z,19.00
2019-04-30T23:53:59.120Z,20.92
2019-04-30T23:56:27.704Z,22.07
2019-04-30T23:58:56.280Z,21.90
